Time;durP1;ratioP1;P1;durP2;ratioP2;P2;SDS_P1;SDS_P2;PMS_P1;PMS_P2;Temp;Humidity;BMP_temperature;BMP_pressure;BME280_temperature;BME280_humidity;BME280_pressure;Samples;Min_cycle;Max_cycle;Signal;HPM_P1;HPM_P2
2023/04/09 00:09:55;;;;;;;72.80;44.00;;;;;;;5.67;85.05;99275.59;436380;1253;107510;-40
2023/04/09 00:20:01;;;;;;;70.80;43.00;;;;;;;5.70;84.88;99278.82;436215;1251;99218;-40
2023/04/09 00:30:10;;;;;;;65.70;39.20;;;;;;;5.70;85.07;99284.07;436373;1247;109530;-41
2023/04/09 00:40:17;;;;;;;69.80;43.10;;;;;;;5.83;85.30;99281.04;436297;1253;99218;-40
2023/04/09 00:50:25;;;;;;;83.20;48.80;;;;;;;5.86;85.30;99280.52;436600;1253;111195;-40
2023/04/09 01:00:32;;;;;;;87.60;49.00;;;;;;;5.67;85.11;99282.81;436597;1253;107210;-42
2023/04/09 01:10:37;;;;;;;53.20;35.50;;;;;;;5.60;85.09;99285.55;436398;1253;98852;-40
2023/04/09 01:20:45;;;;;;;49.90;33.60;;;;;;;5.66;85.24;99290.83;436391;1247;107208;-41
2023/04/09 01:30:58;;;;;;;53.90;35.70;;;;;;;5.57;85.06;99277.28;435314;1255;98837;-40
2023/04/09 01:41:04;;;;;;;57.70;36.10;;;;;;;5.59;85.27;99277.58;435297;1250;112427;-41
2023/04/09 02:01:21;;;;;;;91.30;49.40;;;;;;;5.40;85.28;99263.94;435484;1264;99215;-40
2023/04/09 02:11:26;;;;;;;;;;;;;;;5.22;85.28;99253.88;435459;1253;107486;-40
2023/04/09 02:21:33;;;;;;;55.20;32.70;;;;;;;5.17;85.58;99253.31;435229;1253;99273;-40
2023/04/09 02:31:40;;;;;;;54.80;33.30;;;;;;;5.22;85.67;99248.09;435385;1250;111157;-41
2023/04/09 02:41:47;;;;;;;40.20;23.70;;;;;;;5.28;85.75;99244.96;435381;1250;106662;-40
2023/04/09 02:51:54;;;;;;;45.50;28.70;;;;;;;5.23;85.58;99246.39;435431;1250;99240;-40
2023/04/09 03:12:07;;;;;;;61.10;35.70;;;;;;;5.20;86.00;99250.29;435312;1253;99302;-42
2023/04/09 03:22:14;;;;;;;50.60;30.50;;;;;;;5.10;85.97;99246.48;435320;1252;112063;-41
2023/04/09 03:32:21;;;;;;;42.40;28.20;;;;;;;5.22;86.22;99246.50;435448;1250;108300;-40
2023/04/09 03:42:29;;;;;;;49.00;30.90;;;;;;;5.38;86.29;99245.82;435095;1251;373632;-40
2023/04/09 03:52:36;;;;;;;68.40;40.60;;;;;;;5.35;86.34;99243.96;435387;1251;109364;-40
2023/04/09 04:02:43;;;;;;;59.80;38.40;;;;;;;5.26;86.49;99244.85;435288;1254;97979;-41
2023/04/09 04:12:49;;;;;;;58.20;36.20;;;;;;;5.22;86.37;99244.40;435378;1253;111986;-41
2023/04/09 04:22:57;;;;;;;50.30;32.00;;;;;;;5.24;86.42;99252.19;435362;1253;108648;-40
2023/04/09 04:33:04;;;;;;;54.40;33.40;;;;;;;5.30;86.50;99254.27;435235;1250;99237;-41
2023/04/09 04:43:11;;;;;;;53.30;33.90;;;;;;;5.35;86.54;99259.62;435390;1263;107220;-40
2023/04/09 04:53:18;;;;;;;63.00;41.00;;;;;;;5.45;86.84;99268.11;435431;1256;98030;-40
2023/04/09 05:03:25;;;;;;;76.00;46.50;;;;;;;5.48;87.00;99272.24;435524;1253;111869;-41
2023/04/09 05:13:33;;;;;;;70.70;44.30;;;;;;;5.48;86.86;99268.77;435313;1253;108160;-39
2023/04/09 05:23:41;;;;;;;70.80;44.70;;;;;;;5.63;87.12;99271.78;435314;1253;99228;-40
2023/04/09 05:33:48;;;;;;;72.00;48.10;;;;;;;5.82;87.25;99278.93;435328;1253;105915;-41
2023/04/09 05:43:55;;;;;;;70.10;42.00;;;;;;;6.01;87.27;99286.29;435266;1253;99222;-41
2023/04/09 05:54:02;;;;;;;;;;;;;;;6.17;87.23;99291.56;435702;1253;111241;-40
2023/04/09 06:04:09;;;;;;;90.90;51.30;;;;;;;6.32;87.47;99294.20;435521;1254;99813;-40
2023/04/09 06:14:17;;;;;;;75.70;48.00;;;;;;;6.43;87.36;99289.89;435472;1251;98023;-41
2023/04/09 06:24:24;;;;;;;59.60;37.50;;;;;;;6.73;87.30;99296.91;435355;1254;112139;-40
2023/04/09 06:34:31;;;;;;;43.50;28.70;;;;;;;7.11;87.24;99298.89;435365;1250;107783;-39
2023/04/09 06:44:39;;;;;;;40.00;27.20;;;;;;;7.65;87.22;99301.10;435339;1253;99031;-40
2023/04/09 06:54:46;;;;;;;46.90;27.90;;;;;;;8.25;87.28;99301.70;435369;1253;108321;-40
2023/04/09 07:04:53;;;;;;;43.30;27.10;;;;;;;8.64;87.04;99303.56;435317;1253;99247;-41
2023/04/09 07:15:00;;;;;;;34.30;20.60;;;;;;;8.85;86.56;99313.84;435383;1251;111818;-41
2023/04/09 07:25:08;;;;;;;28.90;20.50;;;;;;;9.00;86.46;99316.48;435190;1253;107780;-42
2023/04/09 07:35:17;;;;;;;26.50;17.30;;;;;;;9.47;86.59;99316.88;435332;1263;99240;-41
2023/04/09 07:45:24;;;;;;;27.50;17.80;;;;;;;10.31;86.62;99317.43;435367;1263;107846;-39
2023/04/09 07:55:32;;;;;;;23.50;15.10;;;;;;;10.98;85.72;99316.70;435331;1254;98840;-41
2023/04/09 08:05:39;;;;;;;22.90;14.60;;;;;;;11.64;85.09;99319.23;435173;1254;112883;-41
2023/04/09 08:15:46;;;;;;;26.00;15.40;;;;;;;11.61;84.15;99319.63;435320;1263;107344;-40
2023/04/09 08:25:53;;;;;;;19.70;15.00;;;;;;;11.30;83.43;99318.94;435464;1249;97999;-40
2023/04/09 08:36:00;;;;;;;18.80;13.20;;;;;;;11.22;83.18;99326.70;435240;1263;108415;-41
2023/04/09 08:46:14;;;;;;;15.60;11.30;;;;;;;11.26;82.77;99331.05;435335;1260;99248;-41
2023/04/09 08:56:22;;;;;;;18.90;13.30;;;;;;;11.24;82.33;99328.34;435650;1253;111033;-40
2023/04/09 09:06:31;;;;;;;18.70;13.20;;;;;;;11.50;81.87;99326.16;435435;1255;108016;-41
2023/04/09 09:26:47;;;;;;;21.40;14.00;;;;;;;11.81;81.46;99330.48;435384;1253;107468;-42
2023/04/09 09:36:54;;;;;;;20.90;15.10;;;;;;;11.41;80.31;99331.14;435519;1253;99220;-41
2023/04/09 09:47:03;;;;;;;19.60;14.40;;;;;;;11.20;79.99;99327.41;435532;1253;111565;-41
2023/04/09 10:17:28;;;;;;;21.30;13.40;;;;;;;12.10;78.85;99314.71;435371;1262;108267;-39
2023/04/09 10:27:34;;;;;;;18.70;13.10;;;;;;;12.07;78.50;99317.23;435363;1249;98862;-41
2023/04/09 10:47:56;;;;;;;28.60;20.00;;;;;;;11.67;77.87;99304.20;435329;1253;107639;-40
2023/04/09 10:58:03;;;;;;;18.30;13.80;;;;;;;11.97;77.53;99303.96;435392;1250;99244;-40
2023/04/09 11:08:11;;;;;;;20.70;15.40;;;;;;;12.15;77.18;99301.19;435396;1254;109133;-42
2023/04/09 11:18:22;;;;;;;37.00;21.70;;;;;;;12.40;77.11;99305.80;435664;1251;98770;-41
2023/04/09 11:28:30;;;;;;;23.90;16.30;;;;;;;12.46;76.60;99305.78;435288;1251;111095;-41
2023/04/09 11:48:45;;;;;;;21.90;16.80;;;;;;;12.09;75.93;99303.09;435511;1251;99224;-41
2023/04/09 11:58:54;;;;;;;23.50;17.10;;;;;;;12.12;75.35;99306.04;435386;1254;106696;-41
2023/04/09 12:09:01;;;;;;;26.60;19.50;;;;;;;12.24;75.27;99310.11;435455;1250;98072;-41
2023/04/09 12:19:10;;;;;;;27.70;18.60;;;;;;;12.47;75.34;99319.23;435712;1253;110911;-41
2023/04/09 12:29:20;;;;;;;21.40;16.60;;;;;;;13.20;75.30;99311.63;435365;1250;107711;-41
2023/04/09 12:39:27;;;;;;;23.10;14.70;;;;;;;13.55;74.61;99309.31;435542;1254;99227;-41
2023/04/09 12:49:34;;;;;;;146.60;45.50;;;;;;;13.69;73.25;99305.52;435432;1254;107733;-41
2023/04/09 12:59:41;;;;;;;54.70;26.90;;;;;;;13.38;72.33;99304.52;435368;1263;99241;-41
2023/04/09 13:19:54;;;;;;;49.80;29.70;;;;;;;12.57;72.35;99307.55;435303;1253;107864;-42
2023/04/09 13:30:02;;;;;;;26.90;17.70;;;;;;;12.02;72.22;99309.65;435287;1250;99339;-41
2023/04/09 13:40:11;;;;;;;26.70;18.80;;;;;;;11.41;72.37;99307.42;435465;1253;108589;-41
2023/04/09 13:50:18;;;;;;;28.10;19.30;;;;;;;10.93;72.75;99318.33;435334;1264;99327;-41
2023/04/09 14:00:24;;;;;;;32.10;19.80;;;;;;;10.35;73.69;99326.24;435344;1254;111667;-40
2023/04/09 14:10:32;;;;;;;38.30;27.10;;;;;;;9.87;74.58;99329.30;435237;1249;108292;-41
2023/04/09 14:20:40;;;;;;;26.90;19.20;;;;;;;9.82;75.60;99326.52;435325;1254;99295;-41
2023/04/09 14:30:47;;;;;;;46.00;27.60;;;;;;;9.85;76.46;99317.73;435366;1250;108102;-41
2023/04/09 14:40:54;;;;;;;50.40;31.00;;;;;;;9.81;76.85;99320.02;435353;1254;99213;-41
2023/04/09 14:51:02;;;;;;;21.60;15.40;;;;;;;9.80;77.08;99314.90;435409;1250;111006;-41
2023/04/09 15:01:08;;;;;;;21.80;16.10;;;;;;;9.84;77.50;99307.27;435376;1254;107335;-41
2023/04/09 15:21:22;;;;;;;21.40;15.20;;;;;;;9.80;78.10;99307.95;435298;1249;107979;-41
2023/04/09 15:41:37;;;;;;;28.20;20.30;;;;;;;9.80;78.90;99306.48;435253;1253;291176;-42
2023/04/09 15:51:44;;;;;;;31.10;20.50;;;;;;;9.66;78.73;99307.27;435231;1251;109041;-41
2023/04/09 16:01:51;;;;;;;25.10;17.20;;;;;;;9.58;79.10;99304.02;435364;1250;99227;-40
2023/04/09 16:12:00;;;;;;;32.30;22.50;;;;;;;9.39;79.45;99309.70;435311;1253;108319;-41
2023/04/09 16:22:07;;;;;;;40.60;27.10;;;;;;;9.33;79.67;99312.67;435173;1254;99250;-41
2023/04/09 16:32:15;;;;;;;85.80;51.20;;;;;;;9.20;79.80;99314.55;435424;1254;112227;-39
2023/04/09 16:42:23;;;;;;;58.80;38.60;;;;;;;9.02;80.16;99313.02;435680;1264;108801;-41
2023/04/09 16:52:29;;;;;;;61.70;40.10;;;;;;;8.89;80.26;99320.63;435546;1251;99246;-41
2023/04/09 17:02:38;;;;;;;68.50;42.50;;;;;;;8.82;80.58;99330.89;435079;1250;106386;-41
2023/04/09 17:12:46;;;;;;;71.10;44.30;;;;;;;8.76;80.84;99331.95;435343;1249;99246;-41
2023/04/09 17:22:53;;;;;;;70.40;44.10;;;;;;;8.78;81.00;99330.86;435223;1250;111934;-42
2023/04/09 17:32:58;;;;;;;79.30;49.80;;;;;;;8.72;81.28;99343.56;435458;1253;107781;-41
2023/04/09 17:43:06;;;;;;;68.30;42.70;;;;;;;8.54;81.18;99360.48;435618;1250;99287;-40
2023/04/09 17:53:13;;;;;;;71.50;44.50;;;;;;;8.30;81.39;99372.45;435270;1249;112679;-41
2023/04/09 18:03:20;;;;;;;69.30;45.50;;;;;;;8.19;81.58;99378.59;435209;1254;107468;-40
2023/04/09 18:13:28;;;;;;;70.80;40.70;;;;;;;8.19;81.96;99386.10;435278;1253;99250;-41
2023/04/09 18:23:38;;;;;;;74.10;42.50;;;;;;;8.22;82.07;99391.65;435323;1253;108583;-41
2023/04/09 18:33:45;;;;;;;78.50;46.40;;;;;;;8.17;82.31;99401.37;435110;1250;99359;-41
2023/04/09 18:43:52;;;;;;;73.60;44.70;;;;;;;8.03;82.45;99409.00;434961;1249;112952;-42
2023/04/09 19:04:06;;;;;;;75.10;45.40;;;;;;;7.86;82.64;99416.64;435293;1254;99116;-41
2023/04/09 19:14:14;;;;;;;82.20;46.70;;;;;;;7.88;82.77;99417.08;435333;1254;107987;-41
2023/04/09 19:24:22;;;;;;;89.20;49.40;;;;;;;7.98;83.20;99419.45;435285;1254;98053;-40
2023/04/09 19:34:30;;;;;;;98.70;54.00;;;;;;;7.84;83.02;99429.56;435257;1253;111185;-41
2023/04/09 19:44:37;;;;;;;96.00;51.60;;;;;;;7.52;82.95;99430.42;435392;1253;107503;-41
2023/04/09 19:54:45;;;;;;;90.00;49.30;;;;;;;7.29;82.91;99434.64;435288;1253;99222;-41
2023/04/09 20:14:57;;;;;;;72.00;42.90;;;;;;;7.15;83.42;99448.08;435198;1254;99228;-41
2023/04/09 20:25:05;;;;;;;83.80;44.30;;;;;;;7.15;83.48;99446.86;435487;1250;111361;-40
2023/04/09 20:35:13;;;;;;;85.10;48.00;;;;;;;7.22;83.72;99444.45;435311;1254;107546;-42
2023/04/09 20:45:19;;;;;;;96.90;47.10;;;;;;;7.15;83.89;99444.23;435419;1251;99320;-41
2023/04/09 20:55:26;;;;;;;103.70;53.10;;;;;;;6.96;83.90;99444.96;435323;1253;110754;-40
2023/04/09 21:05:34;;;;;;;91.60;50.60;;;;;;;6.91;84.07;99438.56;435338;1250;97970;-41
2023/04/09 21:15:41;;;;;;;86.30;44.30;;;;;;;6.93;84.08;99431.88;435379;1253;111167;-41
2023/04/09 21:25:48;;;;;;;91.70;47.70;;;;;;;6.93;84.06;99434.01;435239;1250;107793;-41
2023/04/09 21:35:55;;;;;;;81.40;43.90;;;;;;;6.89;84.30;99435.11;435511;1252;99378;-42
2023/04/09 21:46:03;;;;;;;73.60;43.50;;;;;;;6.95;84.64;99436.58;435358;1250;106883;-40
2023/04/09 21:56:08;;;;;;;94.00;49.10;;;;;;;6.94;84.71;99438.79;435372;1251;99320;-41
2023/04/09 22:06:15;;;;;;;96.10;49.80;;;;;;;6.86;84.84;99436.79;435399;1254;111559;-39
2023/04/09 22:16:23;;;;;;;83.80;47.60;;;;;;;6.81;84.85;99441.42;435361;1251;107188;-41
2023/04/09 22:26:29;;;;;;;78.90;46.00;;;;;;;6.81;84.92;99430.55;435396;1250;99214;-40
2023/04/09 22:36:37;;;;;;;85.40;46.10;;;;;;;6.81;85.03;99424.73;435173;1253;107440;-40
2023/04/09 22:46:45;;;;;;;81.80;44.60;;;;;;;6.87;85.29;99428.05;435308;1256;98705;-41
2023/04/09 22:56:51;;;;;;;80.80;46.00;;;;;;;6.81;85.23;99438.91;435363;1250;111263;-42
2023/04/09 23:06:58;;;;;;;87.10;47.00;;;;;;;6.89;85.62;99442.58;435260;1250;108389;-41
2023/04/09 23:17:05;;;;;;;79.20;45.40;;;;;;;6.96;85.71;99438.13;435232;1256;98847;-40
2023/04/09 23:27:13;;;;;;;87.80;50.50;;;;;;;6.92;85.75;99429.02;435211;1250;107007;-40
2023/04/09 23:37:20;;;;;;;92.20;49.20;;;;;;;7.00;85.93;99424.28;435190;1254;99261;-39
2023/04/09 23:47:27;;;;;;;99.70;54.70;;;;;;;6.93;85.96;99406.63;435463;1255;112094;-41
2023/04/09 23:57:34;;;;;;;115.90;60.20;;;;;;;6.81;86.06;99403.30;435258;1256;108466;-40
